sensor_id;sensor_type;location;lat;lon;timestamp;pressure;altitude;pressure_sealevel;temperature;humidity
56632;BME280;42503;39.928;-75.152;2023-09-12T00:07:24;101449.06;;;28.41;55.53
56632;BME280;42503;39.928;-75.152;2023-09-12T00:17:25;101443.03;;;28.33;55.50
56632;BME280;42503;39.928;-75.152;2023-09-12T00:27:29;101464.81;;;28.42;55.70
56632;BME280;42503;39.928;-75.152;2023-09-12T00:37:30;101484.69;;;28.45;55.73
56632;BME280;42503;39.928;-75.152;2023-09-12T00:47:32;101475.28;;;28.50;55.77
56632;BME280;42503;39.928;-75.152;2023-09-12T00:57:34;101465.72;;;28.51;55.68
56632;BME280;42503;39.928;-75.152;2023-09-12T01:07:41;101481.59;;;28.47;55.74
56632;BME280;42503;39.928;-75.152;2023-09-12T01:17:44;101446.09;;;28.37;52.24
56632;BME280;42503;39.928;-75.152;2023-09-12T01:27:47;101468.41;;;28.56;50.69
56632;BME280;42503;39.928;-75.152;2023-09-12T01:37:49;101454.88;;;28.44;49.82
56632;BME280;42503;39.928;-75.152;2023-09-12T01:47:51;101455.34;;;28.38;49.72
56632;BME280;42503;39.928;-75.152;2023-09-12T01:57:53;101425.75;;;28.26;49.68
56632;BME280;42503;39.928;-75.152;2023-09-12T02:07:55;101447.13;;;28.27;49.40
56632;BME280;42503;39.928;-75.152;2023-09-12T02:17:56;101443.09;;;28.20;53.58
56632;BME280;42503;39.928;-75.152;2023-09-12T02:27:58;101441.88;;;28.12;55.13
56632;BME280;42503;39.928;-75.152;2023-09-12T02:37:59;101457.28;;;28.15;55.61
56632;BME280;42503;39.928;-75.152;2023-09-12T02:48:00;101455.94;;;28.12;56.08
56632;BME280;42503;39.928;-75.152;2023-09-12T02:58:02;101451.97;;;28.13;56.28
56632;BME280;42503;39.928;-75.152;2023-09-12T03:08:04;101449.69;;;28.15;56.41
56632;BME280;42503;39.928;-75.152;2023-09-12T03:18:09;101445.34;;;28.09;56.48
56632;BME280;42503;39.928;-75.152;2023-09-12T03:28:11;101465.59;;;28.20;57.84
56632;BME280;42503;39.928;-75.152;2023-09-12T03:38:12;101490.34;;;28.31;58.47
56632;BME280;42503;39.928;-75.152;2023-09-12T03:48:13;101502.28;;;28.28;58.87
56632;BME280;42503;39.928;-75.152;2023-09-12T03:58:18;101468.91;;;28.22;58.95
56632;BME280;42503;39.928;-75.152;2023-09-12T04:08:19;101479.31;;;28.35;58.72
56632;BME280;42503;39.928;-75.152;2023-09-12T04:18:20;101482.00;;;28.40;58.41
56632;BME280;42503;39.928;-75.152;2023-09-12T04:28:22;101484.66;;;28.36;58.31
56632;BME280;42503;39.928;-75.152;2023-09-12T04:38:23;101491.22;;;28.32;58.32
56632;BME280;42503;39.928;-75.152;2023-09-12T04:48:25;101475.16;;;28.32;58.27
56632;BME280;42503;39.928;-75.152;2023-09-12T04:58:26;101475.06;;;28.38;58.15
56632;BME280;42503;39.928;-75.152;2023-09-12T05:08:28;101464.28;;;28.40;57.99
56632;BME280;42503;39.928;-75.152;2023-09-12T05:18:30;101453.22;;;28.43;57.80
56632;BME280;42503;39.928;-75.152;2023-09-12T05:28:31;101453.44;;;28.47;57.62
56632;BME280;42503;39.928;-75.152;2023-09-12T05:38:32;101453.63;;;28.50;57.18
56632;BME280;42503;39.928;-75.152;2023-09-12T05:48:34;101455.09;;;28.48;57.21
56632;BME280;42503;39.928;-75.152;2023-09-12T05:58:35;101454.25;;;28.47;57.23
56632;BME280;42503;39.928;-75.152;2023-09-12T06:08:37;101462.78;;;28.56;56.99
56632;BME280;42503;39.928;-75.152;2023-09-12T06:18:38;101470.69;;;28.54;56.64
56632;BME280;42503;39.928;-75.152;2023-09-12T06:28:40;101454.47;;;28.51;56.96
56632;BME280;42503;39.928;-75.152;2023-09-12T06:38:41;101448.00;;;28.50;57.00
56632;BME280;42503;39.928;-75.152;2023-09-12T06:48:42;101450.16;;;28.53;56.97
56632;BME280;42503;39.928;-75.152;2023-09-12T06:58:44;101465.06;;;28.54;56.66
56632;BME280;42503;39.928;-75.152;2023-09-12T07:08:45;101424.75;;;28.45;56.50
56632;BME280;42503;39.928;-75.152;2023-09-12T07:18:48;101445.53;;;28.57;56.57
56632;BME280;42503;39.928;-75.152;2023-09-12T07:28:50;101444.22;;;28.55;56.50
56632;BME280;42503;39.928;-75.152;2023-09-12T07:38:52;101434.63;;;28.56;56.34
56632;BME280;42503;39.928;-75.152;2023-09-12T07:48:53;101437.94;;;28.58;56.30
56632;BME280;42503;39.928;-75.152;2023-09-12T07:58:58;101430.84;;;28.60;56.47
56632;BME280;42503;39.928;-75.152;2023-09-12T08:09:05;101423.53;;;28.59;56.22
56632;BME280;42503;39.928;-75.152;2023-09-12T08:19:06;101414.75;;;28.61;56.09
56632;BME280;42503;39.928;-75.152;2023-09-12T08:29:08;101412.09;;;28.56;56.16
56632;BME280;42503;39.928;-75.152;2023-09-12T08:39:15;101420.00;;;28.54;56.31
56632;BME280;42503;39.928;-75.152;2023-09-12T08:49:17;101428.31;;;28.59;55.98
56632;BME280;42503;39.928;-75.152;2023-09-12T08:59:19;101433.44;;;28.57;56.01
56632;BME280;42503;39.928;-75.152;2023-09-12T09:09:21;101443.56;;;28.58;56.02
56632;BME280;42503;39.928;-75.152;2023-09-12T09:19:40;101450.00;;;28.58;55.80
56632;BME280;42503;39.928;-75.152;2023-09-12T09:29:46;101460.84;;;28.65;55.92
56632;BME280;42503;39.928;-75.152;2023-09-12T09:39:49;101453.66;;;28.59;56.08
56632;BME280;42503;39.928;-75.152;2023-09-12T09:49:56;101448.56;;;28.61;55.78
56632;BME280;42503;39.928;-75.152;2023-09-12T09:59:58;101457.13;;;28.56;55.88
56632;BME280;42503;39.928;-75.152;2023-09-12T10:10:02;101467.09;;;28.62;55.62
56632;BME280;42503;39.928;-75.152;2023-09-12T10:20:08;101468.59;;;28.59;55.81
56632;BME280;42503;39.928;-75.152;2023-09-12T10:30:13;101473.56;;;28.62;55.73
56632;BME280;42503;39.928;-75.152;2023-09-12T10:40:16;101499.88;;;28.58;55.73
56632;BME280;42503;39.928;-75.152;2023-09-12T10:50:19;101486.81;;;28.62;55.93
56632;BME280;42503;39.928;-75.152;2023-09-12T11:00:27;101499.66;;;28.54;56.41
56632;BME280;42503;39.928;-75.152;2023-09-12T11:10:28;101496.56;;;28.56;56.33
56632;BME280;42503;39.928;-75.152;2023-09-12T11:20:52;101517.03;;;28.70;55.67
56632;BME280;42503;39.928;-75.152;2023-09-12T11:30:57;101524.38;;;28.80;55.48
56632;BME280;42503;39.928;-75.152;2023-09-12T11:40:59;101532.50;;;28.81;55.24
56632;BME280;42503;39.928;-75.152;2023-09-12T11:51:00;101542.94;;;28.81;55.20
56632;BME280;42503;39.928;-75.152;2023-09-12T12:01:04;101538.78;;;28.78;55.21
56632;BME280;42503;39.928;-75.152;2023-09-12T12:11:06;101534.81;;;28.79;55.05
56632;BME280;42503;39.928;-75.152;2023-09-12T12:21:08;101539.63;;;28.79;55.18
56632;BME280;42503;39.928;-75.152;2023-09-12T12:31:09;101544.44;;;28.78;55.10
56632;BME280;42503;39.928;-75.152;2023-09-12T12:41:10;101542.78;;;28.77;55.00
56632;BME280;42503;39.928;-75.152;2023-09-12T12:51:18;101548.69;;;28.76;54.89
56632;BME280;42503;39.928;-75.152;2023-09-12T13:01:21;101554.66;;;28.74;54.71
56632;BME280;42503;39.928;-75.152;2023-09-12T13:11:22;101532.41;;;28.64;55.04
56632;BME280;42503;39.928;-75.152;2023-09-12T13:21:24;101560.94;;;28.71;54.92
56632;BME280;42503;39.928;-75.152;2023-09-12T13:31:25;101567.59;;;28.75;54.86
56632;BME280;42503;39.928;-75.152;2023-09-12T13:41:26;101573.56;;;28.74;54.86
56632;BME280;42503;39.928;-75.152;2023-09-12T13:51:29;101582.00;;;28.74;54.66
56632;BME280;42503;39.928;-75.152;2023-09-12T14:01:30;101583.66;;;28.75;54.81
56632;BME280;42503;39.928;-75.152;2023-09-12T14:11:34;101584.81;;;28.74;54.59
56632;BME280;42503;39.928;-75.152;2023-09-12T14:21:36;101574.50;;;28.69;54.67
56632;BME280;42503;39.928;-75.152;2023-09-12T14:31:40;101584.50;;;28.75;54.61
56632;BME280;42503;39.928;-75.152;2023-09-12T14:41:51;101576.03;;;28.75;54.64
56632;BME280;42503;39.928;-75.152;2023-09-12T14:51:58;101569.91;;;28.73;54.50
56632;BME280;42503;39.928;-75.152;2023-09-12T15:01:59;101565.94;;;28.74;54.51
56632;BME280;42503;39.928;-75.152;2023-09-12T15:12:01;101567.59;;;28.75;54.40
56632;BME280;42503;39.928;-75.152;2023-09-12T15:22:02;101556.31;;;28.75;54.18
56632;BME280;42503;39.928;-75.152;2023-09-12T15:32:06;101556.84;;;28.77;54.28
56632;BME280;42503;39.928;-75.152;2023-09-12T15:42:08;101544.03;;;28.71;51.87
56632;BME280;42503;39.928;-75.152;2023-09-12T15:52:09;101540.44;;;28.57;50.48
56632;BME280;42503;39.928;-75.152;2023-09-12T16:02:11;101536.84;;;28.43;49.76
56632;BME280;42503;39.928;-75.152;2023-09-12T16:12:12;101528.09;;;28.30;49.31
56632;BME280;42503;39.928;-75.152;2023-09-12T16:22:14;101520.94;;;28.24;49.22
56632;BME280;42503;39.928;-75.152;2023-09-12T16:32:18;101502.09;;;28.11;48.74
56632;BME280;42503;39.928;-75.152;2023-09-12T16:42:21;101514.63;;;28.05;48.65
56632;BME280;42503;39.928;-75.152;2023-09-12T16:52:22;101490.06;;;27.97;48.44
56632;BME280;42503;39.928;-75.152;2023-09-12T17:02:24;101471.66;;;27.91;48.32
56632;BME280;42503;39.928;-75.152;2023-09-12T17:12:26;101466.09;;;27.85;48.30
56632;BME280;42503;39.928;-75.152;2023-09-12T17:22:28;101444.88;;;27.79;48.48
56632;BME280;42503;39.928;-75.152;2023-09-12T17:32:29;101436.56;;;27.74;48.37
56632;BME280;42503;39.928;-75.152;2023-09-12T17:42:34;101431.66;;;27.66;48.00
56632;BME280;42503;39.928;-75.152;2023-09-12T17:52:35;101419.25;;;27.67;48.38
56632;BME280;42503;39.928;-75.152;2023-09-12T18:02:37;101417.59;;;27.66;51.10
56632;BME280;42503;39.928;-75.152;2023-09-12T18:12:38;101400.84;;;27.75;52.71
56632;BME280;42503;39.928;-75.152;2023-09-12T18:22:41;101392.97;;;27.85;52.97
56632;BME280;42503;39.928;-75.152;2023-09-12T18:32:42;101367.88;;;27.89;53.07
56632;BME280;42503;39.928;-75.152;2023-09-12T18:42:43;101363.97;;;27.99;53.16
56632;BME280;42503;39.928;-75.152;2023-09-12T18:52:45;101344.47;;;28.02;53.35
56632;BME280;42503;39.928;-75.152;2023-09-12T19:02:46;101342.69;;;28.06;53.01
56632;BME280;42503;39.928;-75.152;2023-09-12T19:12:50;101323.81;;;28.07;53.10
56632;BME280;42503;39.928;-75.152;2023-09-12T19:22:52;101314.09;;;28.13;53.03
56632;BME280;42503;39.928;-75.152;2023-09-12T19:32:56;101301.56;;;28.19;53.27
56632;BME280;42503;39.928;-75.152;2023-09-12T19:42:58;101300.91;;;28.22;53.13
56632;BME280;42503;39.928;-75.152;2023-09-12T19:52:59;101299.25;;;28.21;53.22
56632;BME280;42503;39.928;-75.152;2023-09-12T20:03:01;101310.91;;;28.28;53.54
56632;BME280;42503;39.928;-75.152;2023-09-12T20:13:02;101300.66;;;28.32;53.74
56632;BME280;42503;39.928;-75.152;2023-09-12T20:23:04;101299.19;;;28.35;53.82
56632;BME280;42503;39.928;-75.152;2023-09-12T20:33:05;101288.13;;;28.39;53.44
56632;BME280;42503;39.928;-75.152;2023-09-12T20:43:07;101261.56;;;28.31;53.27
56632;BME280;42503;39.928;-75.152;2023-09-12T20:53:09;101276.72;;;28.44;53.13
56632;BME280;42503;39.928;-75.152;2023-09-12T21:03:18;101273.91;;;28.44;51.56
56632;BME280;42503;39.928;-75.152;2023-09-12T21:13:19;101270.22;;;28.34;50.44
56632;BME280;42503;39.928;-75.152;2023-09-12T21:23:21;101272.28;;;28.20;50.00
56632;BME280;42503;39.928;-75.152;2023-09-12T21:33:22;101263.09;;;28.06;49.58
56632;BME280;42503;39.928;-75.152;2023-09-12T21:43:27;101248.91;;;27.89;49.38
56632;BME280;42503;39.928;-75.152;2023-09-12T21:53:29;101250.09;;;27.88;48.98
56632;BME280;42503;39.928;-75.152;2023-09-12T22:03:31;101241.25;;;27.80;48.81
56632;BME280;42503;39.928;-75.152;2023-09-12T22:13:33;101230.72;;;27.64;48.78
56632;BME280;42503;39.928;-75.152;2023-09-12T22:23:37;101219.81;;;27.48;48.51
56632;BME280;42503;39.928;-75.152;2023-09-12T22:33:39;101252.47;;;27.58;48.45
56632;BME280;42503;39.928;-75.152;2023-09-12T22:43:41;101258.75;;;27.55;48.47
56632;BME280;42503;39.928;-75.152;2023-09-12T22:53:42;101255.41;;;27.53;48.39
56632;BME280;42503;39.928;-75.152;2023-09-12T23:03:46;101250.44;;;27.50;47.55
56632;BME280;42503;39.928;-75.152;2023-09-12T23:13:52;101237.97;;;27.42;48.07
56632;BME280;42503;39.928;-75.152;2023-09-12T23:23:53;101254.00;;;27.42;47.76
56632;BME280;42503;39.928;-75.152;2023-09-12T23:33:57;101241.75;;;27.38;47.80
56632;BME280;42503;39.928;-75.152;2023-09-12T23:43:59;101248.00;;;27.34;47.70
56632;BME280;42503;39.928;-75.152;2023-09-12T23:54:00;101244.47;;;27.29;47.47
